createdAt,value
2018-05-05T00:00:47.505Z,38.10
2018-05-05T00:03:14.625Z,38.10
2018-05-05T00:05:41.620Z,38.20
2018-05-05T00:08:08.611Z,38.20
2018-05-05T00:10:35.681Z,38.10
2018-05-05T00:13:03.536Z,38.20
2018-05-05T00:15:30.532Z,38.20
2018-05-05T00:17:57.619Z,38.20
2018-05-05T00:20:24.704Z,38.20
2018-05-05T00:22:51.686Z,38.20
2018-05-05T00:25:18.710Z,38.20
2018-05-05T00:27:45.701Z,38.20
2018-05-05T00:30:13.504Z,38.30
2018-05-05T00:32:47.365Z,38.30
2018-05-05T00:35:18.384Z,38.30
2018-05-05T00:37:46.286Z,38.40
2018-05-05T00:40:18.303Z,38.30
2018-05-05T00:42:50.593Z,38.20
2018-05-05T00:45:25.017Z,38.20
2018-05-05T00:48:06.147Z,38.30
2018-05-05T00:53:25.893Z,38.20
2018-05-05T00:55:59.768Z,38.20
2018-05-05T00:58:39.198Z,38.30
2018-05-05T01:01:11.391Z,38.30
2018-05-05T01:03:44.897Z,38.30
2018-05-05T01:06:11.887Z,38.30
2018-05-05T01:08:38.948Z,38.30
2018-05-05T01:11:06.007Z,38.30
2018-05-05T01:13:33.000Z,38.30
2018-05-05T01:15:59.996Z,38.30
2018-05-05T01:18:26.996Z,38.30
2018-05-05T01:20:54.192Z,38.30
2018-05-05T01:23:21.193Z,38.40
2018-05-05T01:25:48.188Z,38.40
2018-05-05T01:28:15.163Z,38.40
2018-05-05T01:30:42.175Z,38.40
2018-05-05T01:33:09.176Z,38.40
2018-05-05T01:35:36.174Z,38.40
2018-05-05T01:38:03.160Z,38.40
2018-05-05T01:40:30.363Z,38.40
2018-05-05T01:42:57.346Z,38.40
2018-05-05T01:45:24.340Z,38.40
2018-05-05T01:47:52.110Z,38.40
2018-05-05T01:50:19.161Z,38.40
2018-05-05T01:52:46.176Z,38.40
2018-05-05T01:55:13.171Z,38.40
2018-05-05T01:57:40.161Z,38.40
2018-05-05T02:00:07.360Z,38.40
2018-05-05T02:02:34.852Z,38.40
2018-05-05T02:05:01.822Z,38.40
2018-05-05T02:07:28.824Z,38.50
2018-05-05T02:09:55.966Z,38.50
2018-05-05T02:12:22.970Z,38.50
2018-05-05T02:14:51.464Z,38.50
2018-05-05T02:17:18.483Z,38.50
2018-05-05T02:19:45.595Z,38.50
2018-05-05T02:22:12.608Z,38.50
2018-05-05T02:24:39.587Z,38.50
2018-05-05T02:27:06.580Z,38.50
2018-05-05T02:29:33.776Z,38.50
2018-05-05T02:32:00.783Z,38.50
2018-05-05T02:34:27.776Z,38.50
2018-05-05T02:36:54.775Z,38.50
2018-05-05T02:39:21.965Z,38.50
2018-05-05T02:41:48.948Z,38.50
2018-05-05T02:44:15.936Z,38.50
2018-05-05T02:46:43.704Z,38.60
2018-05-05T02:49:10.708Z,38.60
2018-05-05T02:51:37.702Z,38.50
2018-05-05T02:54:04.706Z,38.60
2018-05-05T02:56:31.687Z,38.60
2018-05-05T02:58:58.673Z,38.50
2018-05-05T03:01:25.654Z,38.60
2018-05-05T03:03:52.656Z,38.60
2018-05-05T03:06:19.646Z,38.60
2018-05-05T03:08:46.644Z,38.60
2018-05-05T03:11:13.800Z,38.60
2018-05-05T03:13:40.803Z,38.60
2018-05-05T03:16:07.789Z,38.50
2018-05-05T03:18:34.787Z,38.40
2018-05-05T03:21:01.981Z,38.40
2018-05-05T03:23:28.970Z,38.40
2018-05-05T03:25:55.960Z,38.30
2018-05-05T03:28:22.963Z,38.30
2018-05-05T03:30:49.993Z,38.30
2018-05-05T03:33:16.990Z,38.30
2018-05-05T03:35:44.015Z,38.20
2018-05-05T03:38:11.008Z,38.20
2018-05-05T03:40:38.175Z,38.20
2018-05-05T03:43:05.207Z,38.20
2018-05-05T03:45:32.209Z,38.10
2018-05-05T03:47:59.199Z,38.10
2018-05-05T03:50:26.355Z,38.70
2018-05-05T03:52:53.348Z,38.10
2018-05-05T03:55:20.336Z,38.10
2018-05-05T03:57:47.343Z,38.00
2018-05-05T04:00:14.547Z,38.00
2018-05-05T04:02:41.532Z,38.00
2018-05-05T04:05:08.528Z,38.00
2018-05-05T04:07:35.533Z,38.00
2018-05-05T04:10:02.728Z,38.00
2018-05-05T04:12:29.723Z,38.10
2018-05-05T04:14:56.723Z,38.10
2018-05-05T04:17:23.715Z,38.10
2018-05-05T04:19:50.922Z,38.20
2018-05-05T04:22:17.943Z,38.20
2018-05-05T04:24:44.930Z,38.20
2018-05-05T04:27:25.363Z,38.10
2018-05-05T04:29:56.941Z,38.20
2018-05-05T04:32:30.053Z,38.10
2018-05-05T04:35:02.381Z,38.10
2018-05-05T04:37:35.355Z,38.10
2018-05-05T04:45:30.921Z,38.10
2018-05-05T04:47:57.919Z,37.60
2018-05-05T04:58:25.507Z,38.00
2018-05-05T05:00:52.640Z,38.00
2018-05-05T05:03:25.812Z,38.00
2018-05-05T05:05:52.815Z,38.00
2018-05-05T05:08:19.825Z,38.00
2018-05-05T05:10:47.014Z,38.10
2018-05-05T05:13:14.009Z,38.20
2018-05-05T05:15:41.035Z,38.30
2018-05-05T05:18:08.015Z,38.30
2018-05-05T05:20:35.187Z,38.20
2018-05-05T05:23:02.188Z,38.30
2018-05-05T05:25:29.173Z,38.30
2018-05-05T05:27:56.164Z,38.30
2018-05-05T05:30:23.383Z,38.30
2018-05-05T05:32:50.380Z,38.30
2018-05-05T05:35:17.376Z,38.20
2018-05-05T05:37:44.372Z,38.20
2018-05-05T05:40:12.170Z,38.20
2018-05-05T05:42:39.182Z,38.20
2018-05-05T05:45:06.196Z,38.30
2018-05-05T05:47:33.208Z,38.30
2018-05-05T05:50:00.363Z,38.20
2018-05-05T05:52:27.355Z,38.30
2018-05-05T05:54:55.853Z,38.30
2018-05-05T05:57:22.860Z,38.20
2018-05-05T05:59:50.070Z,38.20
2018-05-05T06:02:17.254Z,38.20
2018-05-05T06:04:44.375Z,38.20
2018-05-05T06:07:11.384Z,38.20
2018-05-05T06:09:38.577Z,38.20
2018-05-05T06:12:05.579Z,38.20
2018-05-05T06:14:32.580Z,38.20
2018-05-05T06:16:59.606Z,38.20
2018-05-05T06:19:27.397Z,38.20
2018-05-05T06:21:54.395Z,38.20
2018-05-05T06:24:21.404Z,37.40
2018-05-05T06:26:48.397Z,37.60
2018-05-05T06:29:16.190Z,37.70
2018-05-05T06:31:43.209Z,38.30
2018-05-05T06:34:10.225Z,37.80
2018-05-05T06:36:37.241Z,35.80
2018-05-05T06:39:04.299Z,35.30
2018-05-05T06:41:32.014Z,35.80
2018-05-05T06:43:59.286Z,35.80
2018-05-05T06:46:26.268Z,35.80
2018-05-05T06:48:53.272Z,35.70
2018-05-05T06:51:20.263Z,35.80
2018-05-05T06:53:47.259Z,36.00
2018-05-05T06:56:14.275Z,36.00
2018-05-05T06:58:41.270Z,35.70
2018-05-05T07:01:08.437Z,36.00
2018-05-05T07:03:35.485Z,35.90
2018-05-05T07:06:02.464Z,36.00
2018-05-05T07:08:30.235Z,35.90
2018-05-05T07:10:57.433Z,35.90
2018-05-05T07:13:24.433Z,35.50
2018-05-05T07:15:51.442Z,35.80
2018-05-05T07:18:18.432Z,36.20
2018-05-05T07:20:46.261Z,37.30
2018-05-05T07:23:13.278Z,36.70
2018-05-05T07:25:49.620Z,37.00
2018-05-05T07:28:16.800Z,37.40
2018-05-05T07:30:43.841Z,37.10
2018-05-05T07:33:10.843Z,37.00
2018-05-05T07:35:37.850Z,37.00
2018-05-05T07:38:04.933Z,37.00
2018-05-05T07:48:42.752Z,38.10
2018-05-05T07:54:08.525Z,37.80
2018-05-05T07:56:35.517Z,38.00
2018-05-05T08:01:49.638Z,38.30
2018-05-05T08:04:17.477Z,38.30
2018-05-05T08:09:29.567Z,37.90
2018-05-05T08:12:11.934Z,38.30
2018-05-05T08:14:38.935Z,38.10
2018-05-05T08:17:05.927Z,38.50
2018-05-05T08:19:33.149Z,38.70
2018-05-05T08:22:00.139Z,38.80
2018-05-05T08:24:27.139Z,38.90
2018-05-05T08:26:54.157Z,38.60
2018-05-05T08:29:21.935Z,38.30
2018-05-05T08:31:48.926Z,38.30
2018-05-05T08:34:17.435Z,37.80
2018-05-05T08:36:44.439Z,37.80
2018-05-05T08:39:11.426Z,38.10
2018-05-05T08:41:39.426Z,38.40
2018-05-05T08:44:06.433Z,38.30
2018-05-05T08:46:33.421Z,38.90
2018-05-05T08:49:00.432Z,38.50
2018-05-05T08:51:28.217Z,38.20
2018-05-05T08:53:55.220Z,38.20
2018-05-05T08:56:22.313Z,38.40
2018-05-05T08:58:49.361Z,38.70
2018-05-05T09:01:16.352Z,38.80
2018-05-05T09:03:44.900Z,38.70
2018-05-05T09:06:11.908Z,38.70
2018-05-05T09:08:38.901Z,39.00
2018-05-05T09:11:06.055Z,39.00
2018-05-05T09:13:33.064Z,38.90
2018-05-05T09:16:00.873Z,39.00
2018-05-05T09:18:28.058Z,39.00
2018-05-05T09:20:55.201Z,38.90
2018-05-05T09:23:22.216Z,38.90
2018-05-05T09:25:49.340Z,39.30
2018-05-05T09:28:16.568Z,39.40
2018-05-05T09:30:43.907Z,39.40
2018-05-05T09:33:11.382Z,39.80
2018-05-05T09:35:38.487Z,40.00
2018-05-05T09:38:05.636Z,39.90
2018-05-05T09:40:33.068Z,39.60
2018-05-05T09:43:00.105Z,40.20
2018-05-05T09:45:27.678Z,40.80
2018-05-05T09:47:56.469Z,40.30
2018-05-05T09:50:24.207Z,40.10
2018-05-05T09:52:51.496Z,40.00
2018-05-05T09:55:18.733Z,40.10
2018-05-05T09:57:45.764Z,40.40
2018-05-05T10:00:13.595Z,40.70
2018-05-05T10:02:40.877Z,40.60
2018-05-05T10:05:08.143Z,41.00
2018-05-05T10:07:35.510Z,40.30
2018-05-05T10:10:02.636Z,40.70
2018-05-05T10:12:30.407Z,40.50
2018-05-05T10:14:57.881Z,40.50
2018-05-05T10:17:25.740Z,40.80
2018-05-05T10:19:53.612Z,40.90
2018-05-05T10:22:20.708Z,40.80
2018-05-05T10:24:47.831Z,40.70
2018-05-05T10:27:14.860Z,41.10
2018-05-05T10:29:42.107Z,40.90
2018-05-05T10:32:10.273Z,41.00
2018-05-05T10:34:38.129Z,41.00
2018-05-05T10:37:05.166Z,41.00
2018-05-05T10:39:33.216Z,41.20
2018-05-05T10:42:00.303Z,41.10
2018-05-05T10:44:28.161Z,41.20
2018-05-05T10:46:55.509Z,41.10
2018-05-05T10:49:22.715Z,41.10
2018-05-05T10:51:49.942Z,41.40
2018-05-05T10:54:18.008Z,41.00
2018-05-05T10:56:45.092Z,41.00
2018-05-05T10:59:12.235Z,41.20
2018-05-05T11:01:39.469Z,41.60
2018-05-05T11:04:06.625Z,41.50
2018-05-05T11:06:33.730Z,41.20
2018-05-05T11:09:00.833Z,40.80
2018-05-05T11:11:27.862Z,41.20
2018-05-05T11:13:54.855Z,41.10
2018-05-05T11:16:21.938Z,41.10
2018-05-05T11:18:49.869Z,41.40
2018-05-05T11:21:17.801Z,41.40
2018-05-05T11:23:44.983Z,41.40
2018-05-05T11:26:12.121Z,40.80
2018-05-05T11:28:39.343Z,41.40
2018-05-05T11:31:06.459Z,40.80
2018-05-05T11:33:33.453Z,41.20
2018-05-05T11:36:00.471Z,41.70
2018-05-05T11:38:27.503Z,41.80
2018-05-05T11:40:54.608Z,41.80
2018-05-05T11:43:21.607Z,41.80
2018-05-05T11:45:48.610Z,41.90
2018-05-05T11:48:15.699Z,41.00
2018-05-05T11:50:42.844Z,41.50
2018-05-05T11:53:09.829Z,41.20
2018-05-05T11:55:36.826Z,41.30
2018-05-05T11:58:03.816Z,41.80
2018-05-05T12:00:31.036Z,42.60
2018-05-05T12:02:58.045Z,41.70
2018-05-05T12:05:25.862Z,41.30
2018-05-05T12:07:52.888Z,41.30
2018-05-05T12:10:19.985Z,41.30
2018-05-05T12:12:46.987Z,41.50
2018-05-05T12:15:13.997Z,41.80
2018-05-05T12:17:41.001Z,41.70
2018-05-05T12:22:50.229Z,41.60
2018-05-05T12:25:17.173Z,41.60
2018-05-05T12:27:44.166Z,41.70
2018-05-05T12:30:11.334Z,41.80
2018-05-05T12:32:38.356Z,42.20
2018-05-05T12:35:05.372Z,41.80
2018-05-05T12:37:33.146Z,41.50
2018-05-05T12:40:00.937Z,41.70
2018-05-05T12:42:27.938Z,41.70
2018-05-05T12:44:54.938Z,42.00
2018-05-05T12:47:23.032Z,41.70
2018-05-05T12:49:50.160Z,41.70
2018-05-05T12:52:17.160Z,41.60
2018-05-05T12:54:44.154Z,42.10
2018-05-05T12:57:11.144Z,42.50
2018-05-05T12:59:38.416Z,42.10
2018-05-05T13:02:05.363Z,42.00
2018-05-05T13:04:32.383Z,42.30
2018-05-05T13:06:59.392Z,42.40
2018-05-05T13:09:26.543Z,42.50
2018-05-05T13:11:53.543Z,42.90
2018-05-05T13:14:20.536Z,42.80
2018-05-05T13:16:47.584Z,42.80
2018-05-05T13:19:14.786Z,42.80
2018-05-05T13:21:41.788Z,42.80
2018-05-05T13:24:08.810Z,43.30
2018-05-05T13:26:35.815Z,43.10
2018-05-05T13:29:02.830Z,43.00
2018-05-05T13:31:29.836Z,43.00
2018-05-05T13:33:57.614Z,43.00
2018-05-05T13:36:24.610Z,43.00
2018-05-05T13:38:51.627Z,43.10
2018-05-05T13:41:18.704Z,42.80
2018-05-05T13:43:45.710Z,42.70
2018-05-05T13:46:12.784Z,42.60
2018-05-05T13:48:39.800Z,42.70
2018-05-05T13:51:06.988Z,42.90
2018-05-05T13:53:33.984Z,42.90
2018-05-05T13:56:00.988Z,42.60
2018-05-05T13:58:27.989Z,42.80
2018-05-05T14:00:55.163Z,42.90
2018-05-05T14:03:22.159Z,43.00
2018-05-05T14:05:49.157Z,43.00
2018-05-05T14:08:16.154Z,43.00
2018-05-05T14:10:43.955Z,43.10
2018-05-05T14:13:10.953Z,43.00
2018-05-05T14:15:37.953Z,42.90
2018-05-05T14:18:05.090Z,43.00
2018-05-05T14:20:32.163Z,43.00
2018-05-05T14:22:59.166Z,42.90
2018-05-05T14:25:26.265Z,43.00
2018-05-05T14:27:53.267Z,42.90
2018-05-05T14:30:20.393Z,42.80
2018-05-05T14:32:47.383Z,42.90
2018-05-05T14:35:14.379Z,42.90
2018-05-05T14:37:41.391Z,42.90
2018-05-05T14:40:08.549Z,42.90
2018-05-05T14:42:35.543Z,42.90
2018-05-05T14:45:02.548Z,42.80
2018-05-05T14:47:29.874Z,42.70
2018-05-05T14:49:57.127Z,42.70
2018-05-05T14:52:24.111Z,42.40
2018-05-05T14:54:51.115Z,42.50
2018-05-05T14:57:18.114Z,42.60
2018-05-05T14:59:45.131Z,42.60
2018-05-05T15:02:12.145Z,42.40
2018-05-05T15:04:39.142Z,42.50
2018-05-05T15:07:06.130Z,42.40
2018-05-05T15:09:33.926Z,42.40
2018-05-05T15:12:00.947Z,42.30
2018-05-05T15:17:08.557Z,42.60
2018-05-05T15:19:35.649Z,42.60
2018-05-05T15:22:02.657Z,42.80
2018-05-05T15:24:29.675Z,42.80
2018-05-05T15:26:56.700Z,42.70
2018-05-05T15:29:23.824Z,42.70
2018-05-05T15:31:50.823Z,42.60
2018-05-05T15:34:17.818Z,43.40
2018-05-05T15:36:44.808Z,43.00
2018-05-05T15:39:12.030Z,42.60
2018-05-05T15:41:39.047Z,42.60
2018-05-05T15:44:06.041Z,42.50
2018-05-05T15:46:33.047Z,42.70
2018-05-05T15:49:00.040Z,42.70
2018-05-05T15:51:27.065Z,42.80
2018-05-05T15:54:07.233Z,42.70
2018-05-05T15:59:16.043Z,42.50
2018-05-05T16:01:43.067Z,42.40
2018-05-05T16:04:10.067Z,42.40
2018-05-05T16:06:37.047Z,42.30
2018-05-05T16:09:04.844Z,42.40
2018-05-05T16:11:31.901Z,42.40
2018-05-05T16:13:58.855Z,42.50
2018-05-05T16:16:25.848Z,42.50
2018-05-05T16:18:53.664Z,40.20
2018-05-05T16:21:20.665Z,40.20
2018-05-05T16:23:47.664Z,39.70
2018-05-05T16:26:14.659Z,39.50
2018-05-05T16:28:42.441Z,39.40
2018-05-05T16:31:09.507Z,39.40
2018-05-05T16:33:36.498Z,39.90
2018-05-05T16:36:03.494Z,39.50
2018-05-05T16:38:30.504Z,39.10
2018-05-05T16:40:58.303Z,39.10
2018-05-05T16:43:25.318Z,39.00
2018-05-05T16:45:52.308Z,39.40
2018-05-05T16:48:19.350Z,39.20
2018-05-05T16:50:46.513Z,39.30
2018-05-05T16:53:13.515Z,39.10
2018-05-05T16:55:40.500Z,39.30
2018-05-05T16:58:07.501Z,38.80
2018-05-05T17:00:35.305Z,39.90
2018-05-05T17:03:02.371Z,39.90
2018-05-05T17:05:29.363Z,39.70
2018-05-05T17:07:57.125Z,39.70
2018-05-05T17:10:24.932Z,40.00
2018-05-05T17:12:51.951Z,40.00
2018-05-05T17:15:19.013Z,40.40
2018-05-05T17:17:46.832Z,40.20
2018-05-05T17:20:17.860Z,40.30
2018-05-05T17:22:44.847Z,40.10
2018-05-05T17:25:13.245Z,39.10
2018-05-05T17:27:41.027Z,40.40
2018-05-05T17:30:08.078Z,40.40
2018-05-05T17:32:35.104Z,40.50
2018-05-05T17:35:02.122Z,40.60
2018-05-05T17:37:29.127Z,40.60
2018-05-05T17:39:56.274Z,40.70
2018-05-05T17:42:23.284Z,40.70
2018-05-05T17:44:50.297Z,40.60
2018-05-05T17:47:17.811Z,40.60
2018-05-05T17:49:44.880Z,40.80
2018-05-05T17:52:11.880Z,40.80
2018-05-05T17:54:38.886Z,40.90
2018-05-05T17:57:05.889Z,40.90
2018-05-05T17:59:33.058Z,40.90
2018-05-05T18:02:00.050Z,41.10
2018-05-05T18:04:27.055Z,41.10
2018-05-05T18:06:54.092Z,41.00
2018-05-05T18:09:21.245Z,41.10
2018-05-05T18:11:48.223Z,41.00
2018-05-05T18:14:15.303Z,41.00
2018-05-05T18:16:42.239Z,41.00
2018-05-05T18:19:10.090Z,40.70
2018-05-05T18:21:37.093Z,41.00
2018-05-05T18:24:04.116Z,41.10
2018-05-05T18:26:31.169Z,41.20
2018-05-05T18:28:58.115Z,41.10
2018-05-05T18:31:25.117Z,41.60
2018-05-05T18:33:52.126Z,41.50
2018-05-05T18:36:19.132Z,41.60
2018-05-05T18:38:48.057Z,41.60
2018-05-05T18:41:15.056Z,41.50
2018-05-05T18:43:42.115Z,41.70
2018-05-05T18:46:09.083Z,41.80
2018-05-05T18:48:36.846Z,41.80
2018-05-05T18:51:05.166Z,41.70
2018-05-05T18:53:32.344Z,41.60
2018-05-05T18:55:59.462Z,41.60
2018-05-05T18:58:26.509Z,41.60
2018-05-05T19:00:53.591Z,41.70
2018-05-05T19:03:20.668Z,41.70
2018-05-05T19:05:48.478Z,41.60
2018-05-05T19:08:15.508Z,41.60
2018-05-05T19:10:42.586Z,41.70
2018-05-05T19:13:09.602Z,41.80
2018-05-05T19:15:36.686Z,41.80
2018-05-05T19:18:03.721Z,41.70
2018-05-05T19:20:30.795Z,41.80
2018-05-05T19:22:57.900Z,41.80
2018-05-05T19:25:24.973Z,41.90
2018-05-05T19:27:52.111Z,41.80
2018-05-05T19:30:19.209Z,41.80
2018-05-05T19:32:47.157Z,42.40
2018-05-05T19:35:14.200Z,41.80
2018-05-05T19:37:41.262Z,41.90
2018-05-05T19:40:08.356Z,41.80
2018-05-05T19:42:35.363Z,41.90
2018-05-05T19:45:02.367Z,41.90
2018-05-05T19:47:30.769Z,41.90
2018-05-05T19:49:57.776Z,41.80
2018-05-05T19:52:24.817Z,41.90
2018-05-05T19:54:51.842Z,41.80
2018-05-05T19:57:18.861Z,41.90
2018-05-05T19:59:45.965Z,41.80
2018-05-05T20:02:12.967Z,41.80
2018-05-05T20:04:40.760Z,41.70
2018-05-05T20:07:08.528Z,41.70
2018-05-05T20:09:35.585Z,41.70
2018-05-05T20:12:02.592Z,41.70
2018-05-05T20:14:31.312Z,41.70
2018-05-05T20:16:58.331Z,41.60
2018-05-05T20:19:25.453Z,41.60
2018-05-05T20:21:52.457Z,41.60
2018-05-05T20:24:19.524Z,41.60
2018-05-05T20:26:46.755Z,41.60
2018-05-05T20:29:13.871Z,41.50
2018-05-05T20:31:41.208Z,41.70
2018-05-05T20:34:08.235Z,41.80
2018-05-05T20:36:35.534Z,41.70
2018-05-05T20:39:13.596Z,41.70
2018-05-05T20:41:40.694Z,41.80
2018-05-05T20:44:07.763Z,41.80
2018-05-05T20:46:34.799Z,41.90
2018-05-05T20:49:02.061Z,42.10
2018-05-05T20:51:29.184Z,42.00
2018-05-05T20:53:56.279Z,42.10
2018-05-05T20:56:23.621Z,42.10
2018-05-05T20:58:50.864Z,42.10
2018-05-05T21:01:17.965Z,42.10
2018-05-05T21:03:45.003Z,42.00
2018-05-05T21:06:12.079Z,42.00
2018-05-05T21:08:39.989Z,42.00
2018-05-05T21:11:07.270Z,42.00
2018-05-05T21:13:34.170Z,42.10
2018-05-05T21:16:01.157Z,42.20
2018-05-05T21:18:28.218Z,42.10
2018-05-05T21:20:56.157Z,42.60
2018-05-05T21:23:23.157Z,42.00
2018-05-05T21:25:52.588Z,42.00
2018-05-05T21:28:20.364Z,42.00
2018-05-05T21:30:56.317Z,41.90
2018-05-05T21:33:23.376Z,41.90
2018-05-05T21:35:51.110Z,41.90
2018-05-05T21:38:18.127Z,41.90
2018-05-05T21:40:45.883Z,41.90
2018-05-05T21:43:12.877Z,41.90
2018-05-05T21:45:39.893Z,41.90
2018-05-05T21:48:06.888Z,41.80
2018-05-05T21:50:34.042Z,41.80
2018-05-05T21:53:01.035Z,41.70
2018-05-05T21:55:28.042Z,41.70
2018-05-05T21:57:55.064Z,41.70
2018-05-05T22:00:22.848Z,41.80
2018-05-05T22:02:49.856Z,41.80
2018-05-05T22:05:16.843Z,41.70
2018-05-05T22:07:43.841Z,41.70
2018-05-05T22:10:11.103Z,41.60
2018-05-05T22:12:38.893Z,41.70
2018-05-05T22:15:05.905Z,41.70
2018-05-05T22:17:32.936Z,41.60
2018-05-05T22:20:01.500Z,41.60
2018-05-05T22:22:28.517Z,41.60
2018-05-05T22:24:55.802Z,41.60
2018-05-05T22:27:22.808Z,41.60
2018-05-05T22:29:49.881Z,41.60
2018-05-05T22:32:16.875Z,41.60
2018-05-05T22:34:43.880Z,41.60
2018-05-05T22:37:10.883Z,41.70
2018-05-05T22:39:38.672Z,41.70
2018-05-05T22:42:05.672Z,41.60
2018-05-05T22:44:32.687Z,41.60
2018-05-05T22:46:59.683Z,41.50
2018-05-05T22:49:27.491Z,41.40
2018-05-05T22:51:54.505Z,41.40
2018-05-05T22:54:21.492Z,41.30
2018-05-05T22:56:48.511Z,41.30
2018-05-05T22:59:15.670Z,41.30
2018-05-05T23:01:42.692Z,41.30
2018-05-05T23:04:09.682Z,41.30
2018-05-05T23:06:36.679Z,41.30
2018-05-05T23:09:12.704Z,41.20
2018-05-05T23:11:39.712Z,41.30
2018-05-05T23:14:06.697Z,41.20
2018-05-05T23:16:33.686Z,41.20
2018-05-05T23:19:01.456Z,41.20
2018-05-05T23:21:28.459Z,41.20
2018-05-05T23:23:55.459Z,41.20
2018-05-05T23:26:22.466Z,41.10
2018-05-05T23:28:49.461Z,41.20
2018-05-05T23:31:16.479Z,41.20
2018-05-05T23:33:44.238Z,41.20
2018-05-05T23:36:12.024Z,41.20
2018-05-05T23:38:39.282Z,41.20
2018-05-05T23:41:06.348Z,41.20
2018-05-05T23:43:33.352Z,41.30
2018-05-05T23:46:00.350Z,41.30
2018-05-05T23:48:27.351Z,41.30
2018-05-05T23:50:55.148Z,41.30
2018-05-05T23:53:22.137Z,41.30
2018-05-05T23:55:49.136Z,41.30
2018-05-05T23:58:16.132Z,41.30
